• Join FlightAware (Why Join?)
  • Login
  • US Flag 
12:48PM EDT


 

Airport Tracker/Info


-or-


 

Live Flight TrackerFlight Track Log ✈ N51EM ✈ 05-Dec-2013 ✈ KSWF - KLNS

Flight Track Log - Related Links

Times and Time Zones

All times are in EST time to prevent confusion due to time zone crossing. See the N51EM flight status page for this flight to view local times or setup timezone preferences in your user account.

Time Position Orientation Groundspeed Altitude Reporting Facility
EST Latitude Longitude Course Direction KTS MPH feet Rate Location/Type
06:16PM 41.5039 -74.0658 81° East 202 232 900  Level Boston Center
06:17PM 41.5167 -73.9578 81° East 280 322 4,300 1,860 Climbing Boston Center
06:18PM 41.5939 -73.9358 12° North 297 342 4,800 900 Climbing Boston Center
06:19PM 41.6625 -73.9772 336° Northwest 250 288 6,200 1,920 Climbing Boston Center
06:20PM 41.7261 -74.0183 334° Northwest 259 298 8,900 2,640 Climbing Boston Center
06:21PM 41.7250 -74.1000 269° West 222 255 11,800 2,820 Climbing Boston Center
06:22PM 41.7083 -74.1956 257° West 247 284 14,700 1,980 Climbing Boston Center
06:23PM 41.6922 -74.2953 258° West 280 322 15,900 600 Climbing Boston Center
06:24PM 41.6708 -74.4106 256° West 320 368 16,000  Climbing Boston Center
06:25PM 41.6503 -74.5322 257° West 313 360 16,000  Level Boston Center
06:26PM 41.6303 -74.6414 256° West 305 351 16,000  Level Boston Center
06:27PM 41.6106 -74.7544 257° West 312 359 16,000  Level Boston Center
06:28PM 41.5853 -74.8922 256° West 315 362 16,000 -60 Level New York Center
06:29PM 41.5669 -74.9992 257° West 325 374 15,900 -60 Descending New York Center
06:30PM 41.5461 -75.1144 256° West 330 380 15,900  Level New York Center
06:31PM 41.5206 -75.2456 255° West 330 380 15,900  Level New York Center
06:32PM 41.4992 -75.3633 256° West 336 387 15,900  Level New York Center
06:33PM 41.4742 -75.4750 253° West 336 387 15,900  Level New York Center
06:34PM 41.3989 -75.5306 209° Southwest 315 362 15,900  Level New York Center
06:35PM 41.3136 -75.5828 205° Southwest 329 379 15,900  Level New York Center
06:36PM 41.2217 -75.6394 205° Southwest 340 391 15,900 -360 Level New York Center
06:37PM 41.1319 -75.6908 203° Southwest 340 391 15,200 -1,020 Descending New York Center
06:38PM 41.0444 -75.7450 205° Southwest 345 397 13,900 -1,200 Descending New York Center
06:39PM 40.9589 -75.7939 203° Southwest 345 397 12,900 -720 Descending New York Center
06:40PM 40.8756 -75.8425 204° Southwest 345 397 12,500 -900 Descending New York Center
06:41PM 40.8072 -75.8842 205° Southwest 320 368 11,100 -1,500 Descending New York Center
06:42PM 40.7322 -75.9333 206° Southwest 297 342 9,500 -1,140 Descending New York Center
06:43PM 40.6636 -75.9719 203° Southwest 272 313 8,900 -300 Descending New York Center
06:44PM 40.5994 -76.0108 205° Southwest 265 305 8,900  Level New York Center
06:45PM 40.5333 -76.0467 202° Southwest 265 305 8,900  Level New York Center
06:46PM 40.4692 -76.0853 205° Southwest 260 299 8,900  Level New York Center
06:47PM 40.4025 -76.1294 207° Southwest 265 305 8,900  Level New York Center
06:48PM 40.3506 -76.1689 210° Southwest 260 299 8,900 -720 Level New York Center
06:49PM 40.2997 -76.2358 225° Southwest 248 285 7,500 -1,320 Descending New York Center
06:50PM 40.2575 -76.2869 223° Southwest 231 266 6,300 -780 Descending New York Center
06:51PM 40.2178 -76.3381 225° Southwest 231 266 6,000 -660 Descending New York Center
06:52PM 40.1767 -76.4108 234° Southwest 231 266 5,000 -1,200 Descending New York Center
06:53PM 40.1522 -76.4850 247° West 236 272 3,700 -960 Descending New York Center
06:54PM 40.1258 -76.5589 245° Southwest 230 265 3,100 -360 Descending New York Center
06:55PM 40.0892 -76.5800 204° Southwest 159 183 3,000 -60 Descending New York Center
06:56PM 40.0467 -76.5983 198° South 159 183 3,000 3,000 Level New York Center
06:57PM 40.0042 -76.6136 195° South 159 183 9,000 3,000 Climbing New York Center
06:58PM 39.9617 -76.6319 198° South 159 183 9,000  Level New York Center
07:00PM 40.0036 -76.5380 60° Northeast  Level FlightAware Approximate
07:07PM 40.1167 -76.2833 North  Level FlightAware Approximate
07:08PM 40.1224 -76.2944 North  Level Estimated
07:09PM 40.1224 -76.2944 North  Level Estimated
07:10PM 40.1224 -76.2944 North  Level Estimated
07:11PM 40.1224 -76.2944 North  Level Estimated
07:12PM 40.1224 -76.2944 North  Level Estimated
07:13PM 40.1224 -76.2944 North  Level Estimated